Time;durP1;ratioP1;P1;durP2;ratioP2;P2;SDS_P1;SDS_P2;PMS_P1;PMS_P2;Temp;Humidity;BMP_temperature;BMP_pressure;BME280_temperature;BME280_humidity;BME280_pressure;Samples;Min_cycle;Max_cycle;Signal;HPM_P1;HPM_P2
2021/05/20 00:04:51;;;;;;;0.20;0.10;;;16.90;99.90;;;;;;20619914;28;20235;-63
2021/05/20 00:14:54;;;;;;;0.20;0.17;;;16.60;99.90;;;;;;20538169;28;20633;-64
2021/05/20 00:24:58;;;;;;;0.20;0.10;;;16.90;99.90;;;;;;20540051;28;20228;-63
2021/05/20 00:35:01;;;;;;;0.20;0.10;;;16.60;99.90;;;;;;20570225;28;20661;-63
2021/05/20 00:45:07;;;;;;;0.57;0.57;;;16.50;99.90;;;;;;20617700;28;20231;-63
2021/05/20 00:55:12;;;;;;;0.53;0.53;;;16.40;99.90;;;;;;20599931;28;20199;-63
2021/05/20 01:05:16;;;;;;;0.33;0.13;;;16.40;99.90;;;;;;20617556;28;20231;-63
2021/05/20 01:15:24;;;;;;;0.30;0.20;;;16.70;99.90;;;;;;20504192;28;20215;-63
2021/05/20 01:25:28;;;;;;;0.20;0.10;;;16.90;99.90;;;;;;20536453;28;20432;-63
2021/05/20 01:35:31;;;;;;;0.33;0.33;;;16.80;99.90;;;;;;20569718;28;20554;-63
2021/05/20 01:45:36;;;;;;;0.20;0.10;;;16.40;99.90;;;;;;20615532;28;20685;-63
2021/05/20 01:55:39;;;;;;;19.90;1.90;;;16.40;99.90;;;;;;20611281;28;20204;-63
2021/05/20 02:05:44;;;;;;;0.83;0.40;;;16.40;99.90;;;;;;20613613;28;20235;-63
2021/05/20 02:15:47;;;;;;;0.20;0.03;;;16.40;99.90;;;;;;20530039;28;20224;-64
2021/05/20 02:25:51;;;;;;;0.20;0.00;;;16.60;99.90;;;;;;20515286;28;20232;-64
2021/05/20 02:35:54;;;;;;;0.20;0.00;;;16.60;99.90;;;;;;20568124;28;20572;-64
2021/05/20 02:45:59;;;;;;;0.20;0.10;;;16.50;99.90;;;;;;20612029;28;20573;-63
2021/05/20 02:56:02;;;;;;;0.27;0.17;;;16.50;99.90;;;;;;20609065;28;20526;-64
2021/05/20 03:06:07;;;;;;;0.20;0.00;;;16.70;99.90;;;;;;20620129;28;20940;-63
2021/05/20 03:16:10;;;;;;;0.30;0.20;;;17.00;99.90;;;;;;20525449;28;20198;-63
2021/05/20 03:26:14;;;;;;;0.20;0.20;;;17.00;99.90;;;;;;20544601;28;20548;-64
2021/05/20 03:36:18;;;;;;;0.30;0.20;;;16.80;99.90;;;;;;20585121;28;20199;-63
2021/05/20 03:46:22;;;;;;;0.33;0.33;;;16.60;99.90;;;;;;20605699;28;20363;-63
2021/05/20 03:56:25;;;;;;;0.93;0.50;;;16.80;99.90;;;;;;20622111;28;20265;-63
2021/05/20 04:06:29;;;;;;;1.73;0.50;;;16.60;99.90;;;;;;20598185;28;21033;-62
2021/05/20 04:16:32;;;;;;;3.03;0.73;;;16.60;99.90;;;;;;20522875;28;20196;-63
2021/05/20 04:26:36;;;;;;;0.30;0.17;;;16.70;99.90;;;;;;20543808;28;20201;-63
2021/05/20 04:36:40;;;;;;;2.10;0.73;;;16.70;99.90;;;;;;20568002;28;20198;-63
2021/05/20 04:46:44;;;;;;;1.13;0.43;;;16.40;99.90;;;;;;20585413;28;21047;-63
2021/05/20 04:56:47;;;;;;;0.20;0.13;;;16.00;99.90;;;;;;20538242;28;20219;-64
2021/05/20 05:06:51;;;;;;;0.67;0.53;;;15.50;99.90;;;;;;20536734;28;20236;-64
2021/05/20 05:16:54;;;;;;;0.27;0.20;;;15.40;99.90;;;;;;20535383;28;20234;-64
2021/05/20 05:26:59;;;;;;;0.20;0.20;;;15.30;99.90;;;;;;20518316;28;21054;-63
2021/05/20 05:37:02;;;;;;;0.30;0.30;;;15.40;99.90;;;;;;20533604;28;20681;-64
2021/05/20 05:47:08;;;;;;;0.20;0.10;;;15.80;99.90;;;;;;20516019;28;20809;-63
2021/05/20 05:57:11;;;;;;;0.20;0.00;;;15.90;99.90;;;;;;20514560;28;20706;-63
2021/05/20 06:07:15;;;;;;;0.20;0.00;;;16.20;99.90;;;;;;20524595;28;20237;-64
2021/05/20 06:17:18;;;;;;;3.20;0.40;;;16.40;99.90;;;;;;20592019;28;20541;-64
2021/05/20 06:27:26;;;;;;;0.73;0.73;;;16.20;99.90;;;;;;20594357;28;20199;-64
2021/05/20 06:37:30;;;;;;;0.20;0.10;;;16.60;99.90;;;;;;20611199;28;21044;-65
2021/05/20 06:47:34;;;;;;;0.30;0.30;;;16.70;99.90;;;;;;20612160;28;20206;-63
2021/05/20 07:07:59;;;;;;;0.63;0.63;;;17.40;99.90;;;;;;20542925;28;20219;-65
2021/05/20 07:18:03;;;;;;;0.27;0.27;;;17.50;99.90;;;;;;20525691;28;20228;-63
2021/05/20 07:28:07;;;;;;;0.30;0.30;;;17.20;99.90;;;;;;20510791;28;20231;-62
2021/05/20 07:38:10;;;;;;;0.20;0.10;;;17.70;99.90;;;;;;20508744;28;20283;-63
2021/05/20 07:48:14;;;;;;;1.40;0.83;;;17.80;99.90;;;;;;20516245;28;20204;-63
2021/05/20 07:58:22;;;;;;;0.50;0.50;;;17.90;99.90;;;;;;20540518;28;20234;-64
2021/05/20 08:08:31;;;;;;;0.70;0.30;;;18.20;99.90;;;;;;20544243;28;20227;-63
2021/05/20 08:18:35;;;;;;;0.20;0.20;;;18.20;99.90;;;;;;20602328;28;20736;-62
2021/05/20 08:28:39;;;;;;;1.23;0.73;;;18.00;99.90;;;;;;20515117;28;20247;-63
2021/05/20 08:38:42;;;;;;;0.30;0.30;;;17.90;99.90;;;;;;20535526;28;20227;-63
2021/05/20 08:48:46;;;;;;;1.03;1.00;;;18.50;99.90;;;;;;20438370;29;20197;-63
2021/05/20 08:58:49;;;;;;;0.20;0.10;;;18.20;99.90;;;;;;20451871;28;20243;-63
2021/05/20 09:08:53;;;;;;;0.20;0.00;;;18.40;99.90;;;;;;20460267;28;20731;-63
2021/05/20 09:18:59;;;;;;;6.73;0.63;;;18.50;99.90;;;;;;20515615;28;20246;-62
2021/05/20 09:29:14;;;;;;;0.37;0.27;;;19.00;99.90;;;;;;20530169;28;20204;-62
2021/05/20 09:39:18;;;;;;;1.13;1.07;;;19.10;99.90;;;;;;20513399;28;20239;-62
2021/05/20 09:49:24;;;;;;;0.30;0.30;;;18.80;99.90;;;;;;20531116;28;20255;-62
2021/05/20 09:59:31;;;;;;;0.30;0.27;;;19.20;99.90;;;;;;20528090;28;20235;-62
2021/05/20 10:09:35;;;;;;;0.20;0.17;;;19.00;99.90;;;;;;20529259;28;20222;-64
2021/05/20 10:19:38;;;;;;;0.23;0.10;;;19.40;99.90;;;;;;20526658;28;20439;-63
2021/05/20 10:29:43;;;;;;;0.40;0.20;;;19.30;99.90;;;;;;20527025;28;20279;-62
2021/05/20 10:39:48;;;;;;;0.20;0.10;;;19.60;99.90;;;;;;20508268;28;20228;-63
2021/05/20 10:50:01;;;;;;;0.23;0.20;;;20.00;99.90;;;;;;20528900;28;21017;-62
2021/05/20 11:00:39;;;;;;;0.20;0.10;;;20.70;99.90;;;;;;20527908;28;20242;-64
2021/05/20 11:10:43;;;;;;;0.27;0.27;;;20.70;99.90;;;;;;20524582;28;20195;-62
2021/05/20 11:20:53;;;;;;;0.40;0.40;;;20.50;99.90;;;;;;20528558;28;20576;-61
2021/05/20 11:30:58;;;;;;;0.20;0.10;;;22.50;99.90;;;;;;20540694;28;20200;-62
2021/05/20 11:41:13;;;;;;;0.30;0.30;;;22.30;99.90;;;;;;20538693;28;20323;-64
2021/05/20 11:51:17;;;;;;;0.50;0.40;;;21.80;99.90;;;;;;20522180;28;20188;-64
2021/05/20 12:01:22;;;;;;;4.27;1.47;;;22.10;99.90;;;;;;20537045;28;20232;-64
2021/05/20 12:11:29;;;;;;;0.20;0.10;;;23.00;99.90;;;;;;20538259;28;20200;-63
2021/05/20 12:21:33;;;;;;;0.20;0.10;;;23.00;99.90;;;;;;20536738;28;20251;-63
2021/05/20 12:31:37;;;;;;;0.40;0.38;;;23.40;99.90;;;;;;20531462;28;20223;-63
2021/05/20 12:41:40;;;;;;;1.23;0.52;;;24.10;99.90;;;;;;20532602;28;20224;-62
2021/05/20 12:51:56;;;;;;;0.35;0.32;;;24.90;99.90;;;;;;20533767;28;20594;-62
2021/05/20 13:02:07;;;;;;;0.20;0.10;;;25.00;99.90;;;;;;20535328;28;20350;-64
2021/05/20 13:12:14;;;;;;;0.20;0.17;;;26.00;99.90;;;;;;20515659;28;20949;-64
2021/05/20 13:22:24;;;;;;;0.40;0.20;;;25.90;99.90;;;;;;20530874;28;20228;-63
2021/05/20 13:32:50;;;;;;;0.43;0.43;;;26.30;99.90;;;;;;20468074;28;20287;-65
2021/05/20 13:42:55;;;;;;;0.57;0.57;;;26.30;99.90;;;;;;20468363;28;20239;-64
2021/05/20 13:53:00;;;;;;;0.20;0.20;;;26.10;99.90;;;;;;20530803;28;20303;-64
2021/05/20 14:03:05;;;;;;;0.20;0.10;;;25.80;99.90;;;;;;20529762;28;20251;-63
2021/05/20 14:13:09;;;;;;;0.20;0.20;;;26.90;99.90;;;;;;20529887;28;20658;-64
2021/05/20 14:23:12;;;;;;;0.75;0.40;;;27.30;99.90;;;;;;20526725;28;20232;-64
2021/05/20 14:33:16;;;;;;;0.43;0.43;;;27.80;99.90;;;;;;20530123;28;20192;-64
2021/05/20 14:43:19;;;;;;;1.20;0.20;;;27.70;99.90;;;;;;20542329;28;21110;-63
2021/05/20 14:53:28;;;;;;;0.20;0.20;;;27.50;99.90;;;;;;20526282;28;20227;-64
2021/05/20 15:14:03;;;;;;;0.20;0.00;;;26.90;99.90;;;;;;20495423;28;20231;-63
2021/05/20 15:24:07;;;;;;;0.40;0.20;;;27.50;99.90;;;;;;20525089;28;20329;-65
2021/05/20 15:34:13;;;;;;;0.60;0.52;;;28.00;99.90;;;;;;20524633;28;20234;-64
2021/05/20 15:44:18;;;;;;;0.45;0.45;;;27.70;99.90;;;;;;20522187;28;20228;-62
2021/05/20 15:54:22;;;;;;;1.08;0.43;;;26.70;99.90;;;;;;20525165;28;20205;-63
2021/05/20 16:04:25;;;;;;;0.20;0.20;;;26.70;99.90;;;;;;20524193;28;20264;-63
2021/05/20 16:14:35;;;;;;;0.82;0.73;;;26.50;99.90;;;;;;20535953;28;20192;-64
2021/05/20 16:45:32;;;;;;;1.00;0.30;;;22.40;99.90;;;;;;20360108;29;20312;-64
2021/05/20 16:55:40;;;;;;;1.38;0.65;;;23.40;99.90;;;;;;20367686;29;20663;-65
2021/05/20 17:05:43;;;;;;;0.27;0.20;;;24.40;99.90;;;;;;20354192;29;20242;-62
2021/05/20 17:15:49;;;;;;;15.10;1.15;;;22.60;99.90;;;;;;20531580;28;20191;-65
2021/05/20 17:26:00;;;;;;;3.80;1.65;;;23.70;99.90;;;;;;20566932;28;20355;-64
2021/05/20 17:36:09;;;;;;;3.58;0.68;;;22.90;99.90;;;;;;20568783;28;20202;-66
2021/05/20 17:46:12;;;;;;;1.13;1.03;;;23.10;99.90;;;;;;20513928;28;20746;-67
2021/05/20 17:56:16;;;;;;;1.10;0.63;;;22.60;99.90;;;;;;20529729;28;20303;-64
2021/05/20 18:06:19;;;;;;;2.80;1.30;;;22.00;99.90;;;;;;20527671;28;20443;-65
2021/05/20 18:16:27;;;;;;;1.73;0.30;;;21.60;99.90;;;;;;20528124;28;20530;-64
2021/05/20 18:26:30;;;;;;;6.70;1.07;;;20.60;99.90;;;;;;20542391;28;20701;-63
2021/05/20 18:36:34;;;;;;;0.50;0.50;;;20.40;99.90;;;;;;20573343;28;20654;-62
2021/05/20 18:46:37;;;;;;;0.37;0.27;;;20.20;99.90;;;;;;20605867;28;20627;-63
2021/05/20 18:56:44;;;;;;;3.50;0.50;;;19.70;99.90;;;;;;20608908;28;20691;-63
2021/05/20 19:06:52;;;;;;;0.30;0.13;;;19.50;99.90;;;;;;20553270;28;20351;-63
2021/05/20 19:16:56;;;;;;;2.27;1.20;;;19.40;99.90;;;;;;20528572;28;20204;-64
2021/05/20 19:27:00;;;;;;;2.00;0.67;;;19.00;99.90;;;;;;20526228;28;20234;-63
2021/05/20 19:37:07;;;;;;;0.90;0.90;;;18.50;99.90;;;;;;20508174;28;20204;-63
2021/05/20 19:47:12;;;;;;;0.20;0.10;;;18.40;99.90;;;;;;20520014;28;20705;-63
2021/05/20 20:07:49;;;;;;;0.37;0.37;;;18.00;99.90;;;;;;20576974;28;20318;-63
2021/05/20 20:17:53;;;;;;;0.20;0.10;;;18.10;99.90;;;;;;20593742;28;20287;-63
2021/05/20 20:27:57;;;;;;;1.03;0.73;;;18.10;99.90;;;;;;20617650;28;20313;-65
2021/05/20 20:48:23;;;;;;;2.10;0.87;;;18.00;99.90;;;;;;20524014;28;20368;-63
2021/05/20 20:58:27;;;;;;;0.20;0.10;;;18.00;99.90;;;;;;20519823;28;20204;-64
2021/05/20 21:08:30;;;;;;;2.43;1.07;;;18.10;99.90;;;;;;20536648;28;20274;-65
2021/05/20 21:18:34;;;;;;;0.60;0.40;;;18.00;99.90;;;;;;20535774;28;20560;-65
2021/05/20 21:28:38;;;;;;;0.23;0.20;;;17.90;99.90;;;;;;20535376;28;20210;-64
2021/05/20 21:38:41;;;;;;;0.20;0.20;;;17.70;99.90;;;;;;20595001;28;20278;-64
2021/05/20 21:48:45;;;;;;;0.30;0.30;;;17.40;99.90;;;;;;20614665;28;20192;-64
2021/05/20 21:58:49;;;;;;;0.20;0.17;;;17.10;99.90;;;;;;20611337;28;20237;-65
2021/05/20 22:08:52;;;;;;;3.20;0.40;;;17.30;99.90;;;;;;20556634;28;20705;-64
2021/05/20 22:18:56;;;;;;;0.20;0.20;;;17.20;99.90;;;;;;20531964;28;20563;-64
2021/05/20 22:29:06;;;;;;;0.87;0.50;;;16.70;99.90;;;;;;20522908;28;20192;-64
2021/05/20 22:39:10;;;;;;;0.53;0.20;;;16.60;99.90;;;;;;20527863;28;20475;-63
2021/05/20 22:49:13;;;;;;;0.20;0.10;;;16.50;99.90;;;;;;20522312;28;20192;-64
2021/05/20 22:59:18;;;;;;;0.20;0.00;;;16.50;99.90;;;;;;20525276;28;20655;-65
2021/05/20 23:09:21;;;;;;;0.20;0.20;;;16.40;99.90;;;;;;20484694;28;731599;-64
2021/05/20 23:19:25;;;;;;;0.33;0.33;;;16.50;99.90;;;;;;20535988;28;20212;-64
2021/05/20 23:29:28;;;;;;;0.20;0.20;;;16.40;99.90;;;;;;20581137;28;20242;-64
2021/05/20 23:39:32;;;;;;;0.43;0.43;;;16.20;99.90;;;;;;20583337;28;20219;-64
2021/05/20 23:49:35;;;;;;;0.50;0.23;;;16.20;99.90;;;;;;20573081;28;20195;-64
2021/05/20 23:59:39;;;;;;;0.20;0.13;;;15.90;99.90;;;;;;20624222;28;20302;-63
